Time;durP1;ratioP1;P1;durP2;ratioP2;P2;SDS_P1;SDS_P2;PMS_P1;PMS_P2;Temp;Humidity;BMP_temperature;BMP_pressure;BME280_temperature;BME280_humidity;BME280_pressure;Samples;Min_cycle;Max_cycle;Signal;HPM_P1;HPM_P2
2020/12/12 00:02:22;;;;;;;28.95;13.30;;;-0.10;87.90;;;;;;5050752;28;20492;-67
2020/12/12 00:04:47;;;;;;;25.60;11.27;;;0.00;87.90;;;;;;5046767;28;20032;-67
2020/12/12 00:07:13;;;;;;;23.88;12.43;;;-0.10;87.80;;;;;;5055971;28;20467;-67
2020/12/12 00:09:39;;;;;;;20.75;11.75;;;0.00;87.70;;;;;;5054424;28;20063;-68
2020/12/12 00:12:05;;;;;;;25.73;13.50;;;-0.10;87.50;;;;;;5054193;28;20028;-67
2020/12/12 00:14:31;;;;;;;25.67;14.30;;;-0.10;87.50;;;;;;5055592;28;20041;-67
2020/12/12 00:16:57;;;;;;;21.40;11.02;;;-0.10;87.60;;;;;;5054614;28;20025;-68
2020/12/12 00:19:23;;;;;;;25.20;11.27;;;-0.10;87.50;;;;;;5055317;28;20021;-67
2020/12/12 00:21:50;;;;;;;22.02;11.57;;;-0.10;87.20;;;;;;5055659;28;20025;-67
2020/12/12 00:24:16;;;;;;;26.23;11.85;;;-0.10;87.80;;;;;;5054088;28;20025;-67
2020/12/12 00:26:42;;;;;;;34.15;17.90;;;-0.20;87.20;;;;;;5055217;28;20076;-67
2020/12/12 00:29:08;;;;;;;34.15;18.75;;;-0.10;87.40;;;;;;5055155;28;20108;-68
2020/12/12 00:31:33;;;;;;;24.10;12.40;;;-0.10;87.50;;;;;;5055368;28;20029;-68
2020/12/12 00:33:59;;;;;;;28.50;12.60;;;-0.10;87.30;;;;;;5055403;28;20056;-68
2020/12/12 00:36:25;;;;;;;44.97;20.33;;;-0.10;87.10;;;;;;5055067;28;20036;-68
2020/12/12 00:38:51;;;;;;;22.83;10.80;;;-0.20;86.80;;;;;;5055077;28;20028;-68
2020/12/12 00:41:16;;;;;;;17.67;9.82;;;-0.20;86.40;;;;;;5054051;28;20078;-68
2020/12/12 00:43:42;;;;;;;25.63;12.60;;;-0.20;86.30;;;;;;5055153;28;20119;-67
2020/12/12 00:46:08;;;;;;;21.15;12.32;;;-0.30;86.20;;;;;;5054832;28;20024;-67
2020/12/12 00:48:33;;;;;;;33.53;16.45;;;-0.30;86.40;;;;;;5055198;28;20036;-68
2020/12/12 00:50:59;;;;;;;38.80;18.63;;;-0.30;86.50;;;;;;5054667;28;20025;-68
2020/12/12 00:53:25;;;;;;;25.90;14.32;;;-0.30;86.60;;;;;;5054680;28;20386;-66
2020/12/12 00:55:54;;;;;;;32.17;15.80;;;-0.30;86.50;;;;;;5054721;28;20104;-66
2020/12/12 00:58:20;;;;;;;21.95;11.52;;;-0.40;86.50;;;;;;5054789;28;20035;-67
2020/12/12 01:00:46;;;;;;;36.45;16.65;;;-0.40;86.30;;;;;;5054189;28;20136;-67
2020/12/12 01:03:12;;;;;;;32.55;15.13;;;-0.40;86.30;;;;;;5047009;28;20041;-68
2020/12/12 01:05:37;;;;;;;32.95;18.30;;;-0.40;86.10;;;;;;5034872;28;20026;-68
2020/12/12 01:08:03;;;;;;;25.23;15.15;;;-0.40;86.30;;;;;;5033369;28;20030;-67
2020/12/12 01:10:29;;;;;;;22.52;11.95;;;-0.50;86.00;;;;;;5034531;28;20021;-68
2020/12/12 01:12:55;;;;;;;24.95;13.05;;;-0.50;86.00;;;;;;5032878;28;20034;-68
2020/12/12 01:15:22;;;;;;;38.17;18.13;;;-0.50;86.10;;;;;;5034575;28;20040;-67
2020/12/12 01:17:47;;;;;;;32.92;14.43;;;-0.50;86.00;;;;;;5033229;28;20448;-66
2020/12/12 01:20:13;;;;;;;19.10;9.70;;;-0.50;85.90;;;;;;5034410;28;20097;-66
2020/12/12 01:22:39;;;;;;;32.53;15.68;;;-0.50;85.70;;;;;;5032980;28;20029;-67
2020/12/12 01:25:05;;;;;;;22.38;11.43;;;-0.60;85.60;;;;;;5034085;28;20028;-67
2020/12/12 01:27:30;;;;;;;20.65;9.73;;;-0.60;85.60;;;;;;5033108;28;20028;-66
2020/12/12 01:29:56;;;;;;;36.15;14.85;;;-0.60;85.60;;;;;;5033006;28;20047;-66
2020/12/12 01:32:22;;;;;;;26.52;12.75;;;-0.60;85.50;;;;;;5034394;28;20033;-67
2020/12/12 01:34:48;;;;;;;25.38;11.90;;;-0.70;85.40;;;;;;5033972;28;20037;-67
2020/12/12 01:37:14;;;;;;;19.90;10.30;;;-0.70;85.70;;;;;;5033910;28;20026;-67
2020/12/12 01:39:39;;;;;;;20.02;10.35;;;-0.70;85.70;;;;;;5034102;28;20053;-67
2020/12/12 01:42:05;;;;;;;31.40;15.75;;;-0.70;85.50;;;;;;5034142;28;20068;-67
2020/12/12 01:44:31;;;;;;;32.85;16.30;;;-0.70;85.60;;;;;;5033908;28;20467;-67
2020/12/12 01:46:59;;;;;;;31.42;17.20;;;-0.70;85.60;;;;;;5033945;28;20030;-67
2020/12/12 01:49:26;;;;;;;33.22;15.82;;;-0.80;85.40;;;;;;5032725;28;20048;-67
2020/12/12 01:51:52;;;;;;;32.55;15.65;;;-0.70;85.50;;;;;;5033928;28;20025;-67
2020/12/12 01:54:18;;;;;;;20.85;11.43;;;-0.80;85.30;;;;;;5034224;28;20034;-67
2020/12/12 01:56:49;;;;;;;26.70;13.98;;;-0.80;85.20;;;;;;5032256;28;20040;-67
2020/12/12 01:59:15;;;;;;;18.15;10.10;;;-0.80;85.30;;;;;;5033527;28;20025;-67
2020/12/12 02:01:45;;;;;;;28.27;14.02;;;-0.80;85.00;;;;;;5033654;28;20028;-67
2020/12/12 02:04:17;;;;;;;21.48;10.70;;;-0.80;85.10;;;;;;5033702;28;20073;-66
2020/12/12 02:06:42;;;;;;;20.35;10.18;;;-0.90;85.00;;;;;;5032278;28;20460;-67
2020/12/12 02:09:08;;;;;;;21.05;11.77;;;-0.90;84.90;;;;;;5033268;28;20147;-67
2020/12/12 02:11:36;;;;;;;24.05;10.93;;;-0.90;84.80;;;;;;5033635;28;20029;-67
2020/12/12 02:14:02;;;;;;;24.77;12.23;;;-0.90;85.00;;;;;;5033425;28;20029;-68
2020/12/12 02:16:28;;;;;;;30.38;14.05;;;-0.90;85.00;;;;;;5033584;28;20031;-66
2020/12/12 02:18:53;;;;;;;35.35;15.77;;;-0.90;85.00;;;;;;5033447;28;20075;-68
2020/12/12 02:21:19;;;;;;;23.50;12.32;;;-0.90;85.10;;;;;;5047218;28;20028;-68
2020/12/12 02:23:45;;;;;;;21.52;11.07;;;-0.90;85.00;;;;;;5033429;28;20434;-69
2020/12/12 02:26:10;;;;;;;32.88;17.77;;;-0.90;84.80;;;;;;5032998;28;20075;-67
2020/12/12 02:28:49;;;;;;;20.70;9.80;;;-0.90;84.70;;;;;;5033337;28;20041;-68
2020/12/12 02:31:14;;;;;;;17.98;9.63;;;-1.00;84.60;;;;;;5032174;28;20475;-68
2020/12/12 02:33:40;;;;;;;22.55;11.23;;;-1.00;84.50;;;;;;5032035;28;20034;-67
2020/12/12 02:36:07;;;;;;;22.83;11.30;;;-1.00;84.50;;;;;;5033539;28;20029;-68
2020/12/12 02:38:33;;;;;;;24.35;10.60;;;-1.00;84.70;;;;;;5033083;28;20490;-68
2020/12/12 02:40:58;;;;;;;22.55;11.30;;;-1.00;84.60;;;;;;5032741;28;20018;-67
2020/12/12 02:43:24;;;;;;;24.52;10.52;;;-1.00;84.50;;;;;;5033012;28;20034;-67
2020/12/12 02:45:50;;;;;;;18.60;10.00;;;-1.00;84.60;;;;;;5033400;28;20025;-67
2020/12/12 02:48:16;;;;;;;21.90;11.43;;;-1.00;84.50;;;;;;5031986;28;20034;-67
2020/12/12 02:50:43;;;;;;;20.80;11.02;;;-1.00;84.60;;;;;;5032898;28;20431;-68
2020/12/12 02:53:09;;;;;;;23.33;11.00;;;-1.00;84.60;;;;;;5032965;28;20025;-68
2020/12/12 02:55:35;;;;;;;22.80;13.27;;;-1.00;84.50;;;;;;5039540;28;20025;-67
2020/12/12 02:58:01;;;;;;;20.90;11.60;;;-1.00;84.60;;;;;;5040877;28;20368;-67
2020/12/12 03:00:27;;;;;;;26.75;13.13;;;-1.00;84.50;;;;;;5031599;28;20028;-67
2020/12/12 03:02:53;;;;;;;44.83;21.05;;;-1.00;84.50;;;;;;5032829;28;20156;-67
2020/12/12 03:05:19;;;;;;;28.00;15.45;;;-1.00;84.60;;;;;;5032754;28;20026;-67
2020/12/12 03:07:45;;;;;;;26.92;13.07;;;-1.10;84.60;;;;;;5032744;28;20095;-68
2020/12/12 03:10:11;;;;;;;21.48;10.00;;;-1.00;84.70;;;;;;5031621;28;20072;-67
2020/12/12 03:12:38;;;;;;;18.10;8.48;;;-1.00;84.40;;;;;;5032604;28;20026;-68
2020/12/12 03:15:09;;;;;;;20.90;10.55;;;-1.00;84.20;;;;;;5031663;28;20112;-67
2020/12/12 03:17:36;;;;;;;21.58;10.32;;;-1.10;84.00;;;;;;5032716;28;20566;-68
2020/12/12 03:20:03;;;;;;;20.27;10.07;;;-1.10;84.00;;;;;;5032762;28;20025;-68
2020/12/12 03:22:29;;;;;;;20.40;9.70;;;-1.10;83.90;;;;;;5033240;28;20087;-67
2020/12/12 03:24:54;;;;;;;19.85;9.90;;;-1.10;84.10;;;;;;5032727;28;20458;-68
2020/12/12 03:27:20;;;;;;;21.35;10.68;;;-1.20;83.90;;;;;;5032803;28;20021;-68
2020/12/12 03:29:46;;;;;;;22.38;10.18;;;-1.20;83.90;;;;;;5032636;28;20018;-67
2020/12/12 03:32:12;;;;;;;16.35;9.45;;;-1.20;83.90;;;;;;5031420;28;20032;-67
2020/12/12 03:34:39;;;;;;;24.30;10.57;;;-1.20;83.90;;;;;;5030994;28;20033;-68
2020/12/12 03:37:05;;;;;;;24.08;11.98;;;-1.20;84.10;;;;;;5031549;28;20071;-67
2020/12/12 03:39:31;;;;;;;19.30;10.23;;;-1.20;84.20;;;;;;5033130;28;20026;-67
2020/12/12 03:41:57;;;;;;;19.35;9.57;;;-1.20;84.10;;;;;;5032858;28;20032;-68
2020/12/12 03:44:23;;;;;;;18.70;10.20;;;-1.20;84.00;;;;;;5032669;28;20029;-68
2020/12/12 03:46:49;;;;;;;17.15;8.20;;;-1.20;84.10;;;;;;5032182;28;20096;-67
2020/12/12 03:49:15;;;;;;;17.23;9.95;;;-1.20;83.90;;;;;;5032395;28;20109;-67
2020/12/12 03:51:41;;;;;;;17.88;9.45;;;-1.20;83.70;;;;;;5031206;28;20116;-67
2020/12/12 03:54:07;;;;;;;20.88;10.38;;;-1.20;83.90;;;;;;5036067;28;20077;-68
2020/12/12 03:56:33;;;;;;;16.20;9.35;;;-1.20;84.00;;;;;;5035951;28;20504;-69
2020/12/12 03:58:58;;;;;;;18.83;9.38;;;-1.20;84.00;;;;;;5035877;28;20013;-67
2020/12/12 04:01:24;;;;;;;18.38;8.68;;;-1.20;84.00;;;;;;5034722;28;20486;-67
2020/12/12 04:03:50;;;;;;;16.77;8.90;;;-1.20;84.10;;;;;;5035862;28;20049;-69
2020/12/12 04:06:15;;;;;;;22.08;12.35;;;-1.20;83.90;;;;;;5036029;28;20033;-67
2020/12/12 04:08:41;;;;;;;24.98;12.18;;;-1.20;83.90;;;;;;5034348;28;20456;-67
2020/12/12 04:11:07;;;;;;;19.63;10.52;;;-1.30;84.00;;;;;;5036025;28;20460;-67
2020/12/12 04:13:33;;;;;;;19.60;10.32;;;-1.30;84.00;;;;;;5035621;28;20033;-67
2020/12/12 04:15:58;;;;;;;17.83;9.23;;;-1.30;84.00;;;;;;5035591;28;20056;-67
2020/12/12 04:18:24;;;;;;;19.25;9.98;;;-1.30;84.60;;;;;;5035692;28;20037;-67
2020/12/12 04:20:50;;;;;;;18.98;9.40;;;-1.20;84.20;;;;;;5035138;28;20033;-68
2020/12/12 04:23:18;;;;;;;16.88;9.15;;;-1.20;84.10;;;;;;5035542;28;20030;-67
2020/12/12 04:25:44;;;;;;;16.77;9.68;;;-1.20;84.10;;;;;;5034497;28;20126;-67
2020/12/12 04:28:10;;;;;;;19.33;9.15;;;-1.20;83.90;;;;;;5035571;28;20025;-67
2020/12/12 04:30:35;;;;;;;19.90;10.43;;;-1.20;84.00;;;;;;5035203;28;20093;-69
2020/12/12 04:33:01;;;;;;;24.65;10.32;;;-1.30;83.90;;;;;;5035033;28;20042;-67
2020/12/12 04:35:27;;;;;;;19.00;10.23;;;-1.30;83.90;;;;;;5035169;28;20174;-67
2020/12/12 04:37:53;;;;;;;24.10;11.68;;;-1.30;83.90;;;;;;5035379;28;20053;-67
2020/12/12 04:40:18;;;;;;;25.52;12.20;;;-1.30;84.00;;;;;;5041773;28;20514;-67
2020/12/12 04:42:45;;;;;;;20.92;10.65;;;-1.20;84.20;;;;;;5042929;28;20057;-67
2020/12/12 04:45:12;;;;;;;19.90;10.30;;;-1.20;84.20;;;;;;5039702;28;20085;-68
2020/12/12 04:47:44;;;;;;;23.27;11.57;;;-1.20;84.00;;;;;;5044374;28;20029;-67
2020/12/12 04:50:11;;;;;;;21.13;10.95;;;-1.20;83.90;;;;;;5035098;28;20025;-66
2020/12/12 04:52:41;;;;;;;20.25;10.60;;;-1.20;84.00;;;;;;5033667;28;20033;-67
2020/12/12 04:55:07;;;;;;;22.70;11.75;;;-1.20;84.00;;;;;;5034837;28;20069;-67
2020/12/12 04:57:37;;;;;;;21.17;10.50;;;-1.20;83.90;;;;;;5034926;28;20163;-66
2020/12/12 05:00:12;;;;;;;23.38;11.70;;;-1.20;83.80;;;;;;5033396;28;20043;-67
2020/12/12 05:02:39;;;;;;;23.13;11.83;;;-1.20;83.80;;;;;;5033479;28;20189;-67
2020/12/12 05:05:06;;;;;;;20.92;9.57;;;-1.30;83.60;;;;;;5034347;28;20422;-67
2020/12/12 05:07:32;;;;;;;21.55;11.38;;;-1.30;83.60;;;;;;5034934;28;20037;-67
2020/12/12 05:09:59;;;;;;;23.25;11.20;;;-1.30;83.70;;;;;;5033453;28;20022;-67
2020/12/12 05:12:24;;;;;;;25.15;10.82;;;-1.30;83.90;;;;;;5034260;28;20079;-67
2020/12/12 05:14:51;;;;;;;24.52;12.10;;;-1.30;83.80;;;;;;5034311;28;20029;-68
2020/12/12 05:17:19;;;;;;;19.55;10.30;;;-1.30;83.70;;;;;;5034637;28;20030;-67
2020/12/12 05:19:51;;;;;;;18.27;10.05;;;-1.40;83.50;;;;;;5034577;28;20033;-67
2020/12/12 05:22:17;;;;;;;22.90;11.30;;;-1.40;83.40;;;;;;5033494;28;20028;-67
2020/12/12 05:24:43;;;;;;;19.08;8.60;;;-1.40;83.50;;;;;;5034118;28;20034;-67
2020/12/12 05:27:09;;;;;;;20.15;9.27;;;-1.40;83.50;;;;;;5034395;28;20446;-68
2020/12/12 05:29:35;;;;;;;18.58;10.70;;;-1.40;83.40;;;;;;5034013;28;20403;-67
2020/12/12 05:32:02;;;;;;;25.45;10.63;;;-1.50;83.40;;;;;;5033071;28;20024;-67
2020/12/12 05:34:28;;;;;;;26.20;10.50;;;-1.50;83.40;;;;;;5046862;28;20040;-67
2020/12/12 05:36:55;;;;;;;17.13;9.07;;;-1.50;83.50;;;;;;5032618;28;20511;-68
2020/12/12 05:39:21;;;;;;;21.20;9.80;;;-1.50;83.50;;;;;;5034067;28;20032;-67
2020/12/12 05:41:48;;;;;;;17.85;9.75;;;-1.50;83.60;;;;;;5033847;28;20476;-68
2020/12/12 05:44:16;;;;;;;17.70;9.38;;;-1.40;83.40;;;;;;5034179;28;20037;-68
2020/12/12 05:46:44;;;;;;;18.90;9.45;;;-1.50;83.30;;;;;;5033763;28;20112;-67
2020/12/12 05:49:09;;;;;;;19.70;10.48;;;-1.50;83.30;;;;;;5034469;28;20021;-67
2020/12/12 05:51:37;;;;;;;18.73;9.88;;;-1.50;83.30;;;;;;5033640;28;20033;-67
2020/12/12 05:54:03;;;;;;;18.48;9.38;;;-1.50;83.40;;;;;;5041432;28;20025;-68
2020/12/12 05:56:31;;;;;;;23.77;9.23;;;-1.50;83.50;;;;;;5040044;28;20112;-68
2020/12/12 05:58:58;;;;;;;20.73;9.27;;;-1.50;83.50;;;;;;5032154;28;20021;-68
2020/12/12 06:01:27;;;;;;;18.77;9.40;;;-1.40;83.60;;;;;;5033768;28;20036;-68
2020/12/12 06:03:54;;;;;;;21.15;8.55;;;-1.50;83.70;;;;;;5033479;28;20120;-68
2020/12/12 06:06:22;;;;;;;18.48;9.02;;;-1.40;83.60;;;;;;5033580;28;20447;-68
2020/12/12 06:09:05;;;;;;;24.77;10.00;;;-1.40;83.50;;;;;;5031696;28;20459;-68
2020/12/12 06:11:32;;;;;;;14.57;8.23;;;-1.40;83.60;;;;;;5033671;28;20025;-69
2020/12/12 06:14:04;;;;;;;15.07;8.52;;;-1.40;83.50;;;;;;5033552;28;20033;-68
2020/12/12 06:16:32;;;;;;;18.23;7.35;;;-1.40;83.60;;;;;;5032979;28;20112;-67
2020/12/12 06:19:16;;;;;;;21.58;10.98;;;-1.40;83.60;;;;;;5031900;28;20083;-67
2020/12/12 06:21:46;;;;;;;44.75;19.55;;;-1.40;83.80;;;;;;5033477;28;20021;-69
2020/12/12 06:24:18;;;;;;;50.72;22.30;;;-1.30;84.10;;;;;;5032501;28;20048;-68
2020/12/12 06:27:05;;;;;;;27.35;11.15;;;-1.30;84.10;;;;;;5033011;28;20112;-68
2020/12/12 06:29:46;;;;;;;20.30;8.32;;;-1.20;84.20;;;;;;5033363;28;20027;-68
2020/12/12 06:32:17;;;;;;;24.30;10.25;;;-1.20;83.90;;;;;;5033386;28;20411;-67
2020/12/12 06:34:48;;;;;;;35.67;16.33;;;-1.20;83.80;;;;;;5032992;28;20029;-68
2020/12/12 06:37:33;;;;;;;45.35;20.20;;;-1.20;83.70;;;;;;5041096;28;20017;-68
2020/12/12 06:40:01;;;;;;;91.63;38.10;;;-1.20;83.70;;;;;;5035066;28;20025;-68
2020/12/12 06:42:37;;;;;;;59.72;26.25;;;-1.20;83.70;;;;;;5031625;28;20044;-68
2020/12/12 06:45:13;;;;;;;25.50;14.07;;;-1.10;83.80;;;;;;5033406;28;20037;-67
2020/12/12 06:47:41;;;;;;;60.38;23.38;;;-1.10;83.80;;;;;;5033137;28;20026;-68
2020/12/12 06:50:14;;;;;;;70.28;28.90;;;-1.10;83.70;;;;;;5031893;28;20386;-67
2020/12/12 06:52:43;;;;;;;39.65;18.33;;;-1.10;83.70;;;;;;5032655;28;20032;-69
2020/12/12 06:55:11;;;;;;;31.48;13.90;;;-1.10;83.60;;;;;;5032795;28;20065;-68
2020/12/12 07:00:26;;;;;;;23.60;10.57;;;-1.10;83.60;;;;;;5032759;28;20084;-68
2020/12/12 07:03:08;;;;;;;25.52;11.13;;;-1.10;83.70;;;;;;5031304;28;20045;-68
2020/12/12 07:05:35;;;;;;;28.00;13.95;;;-1.10;83.70;;;;;;5031581;28;20041;-67
2020/12/12 07:08:02;;;;;;;23.10;13.15;;;-1.10;83.50;;;;;;5032618;28;20037;-68
2020/12/12 07:10:30;;;;;;;20.17;10.45;;;-1.10;83.30;;;;;;5032454;28;20774;-68
2020/12/12 07:12:58;;;;;;;22.20;9.95;;;-1.20;83.20;;;;;;5032424;28;20506;-68
2020/12/12 07:15:30;;;;;;;23.98;11.55;;;-1.20;83.20;;;;;;5031689;28;20107;-68
2020/12/12 07:18:01;;;;;;;26.90;12.90;;;-1.20;83.30;;;;;;5032373;28;20013;-67
2020/12/12 07:20:32;;;;;;;20.70;9.23;;;-1.20;83.60;;;;;;5031726;28;20025;-68
2020/12/12 07:23:01;;;;;;;31.75;15.10;;;-1.20;83.40;;;;;;5046424;28;20033;-68
2020/12/12 07:25:26;;;;;;;28.38;13.77;;;-1.20;83.50;;;;;;5031388;28;20109;-68
2020/12/12 07:27:52;;;;;;;24.08;10.65;;;-1.10;83.60;;;;;;5048456;28;20137;-69
2020/12/12 07:30:18;;;;;;;20.10;9.65;;;-1.10;83.50;;;;;;5036315;28;20034;-68
2020/12/12 07:32:44;;;;;;;23.90;10.35;;;-1.10;83.60;;;;;;5034860;28;20037;-70
2020/12/12 07:35:11;;;;;;;17.88;9.10;;;-1.10;83.40;;;;;;5037088;28;20148;-68
2020/12/12 07:37:37;;;;;;;23.40;11.70;;;-1.10;83.40;;;;;;5036452;28;20026;-68
2020/12/12 07:40:03;;;;;;;35.72;15.57;;;-1.10;83.30;;;;;;5036215;28;20018;-68
2020/12/12 07:42:34;;;;;;;26.35;12.05;;;-1.20;83.10;;;;;;5034995;28;20447;-68
2020/12/12 07:45:15;;;;;;;26.67;15.52;;;-1.20;83.10;;;;;;5037699;28;20379;-67
2020/12/12 07:47:40;;;;;;;57.60;22.98;;;-1.20;83.10;;;;;;5044032;28;20034;-67
2020/12/12 07:50:06;;;;;;;45.75;18.40;;;-1.20;83.90;;;;;;5037879;28;20048;-67
2020/12/12 07:52:32;;;;;;;42.45;16.42;;;-1.20;83.40;;;;;;5046994;28;20083;-68
2020/12/12 07:55:10;;;;;;;33.15;13.32;;;-1.20;83.30;;;;;;5035560;28;20061;-68
2020/12/12 07:57:40;;;;;;;24.15;11.82;;;-1.20;83.10;;;;;;5034879;28;20099;-67
2020/12/12 08:00:11;;;;;;;40.33;16.70;;;-1.20;83.10;;;;;;5035954;28;20029;-68
2020/12/12 08:02:37;;;;;;;25.42;11.98;;;-1.20;82.90;;;;;;5035843;28;20128;-68
2020/12/12 08:05:05;;;;;;;27.80;12.05;;;-1.20;83.00;;;;;;5035856;28;20490;-69
2020/12/12 08:07:35;;;;;;;19.50;9.73;;;-1.20;83.00;;;;;;5042347;28;20029;-68
2020/12/12 08:10:04;;;;;;;28.65;12.75;;;-1.20;83.10;;;;;;5042835;28;20033;-68
2020/12/12 08:12:32;;;;;;;30.55;12.68;;;-1.20;83.30;;;;;;5035494;28;20034;-66
2020/12/12 08:15:01;;;;;;;27.25;10.68;;;-1.20;83.40;;;;;;5035646;28;20026;-67
2020/12/12 08:17:30;;;;;;;28.13;12.77;;;-1.10;83.30;;;;;;5035577;28;20022;-68
2020/12/12 08:19:56;;;;;;;30.15;15.13;;;-1.20;83.00;;;;;;5034295;28;20029;-68
2020/12/12 08:22:24;;;;;;;31.65;14.57;;;-1.20;83.00;;;;;;5035444;28;20033;-67
2020/12/12 08:24:50;;;;;;;27.40;13.13;;;-1.20;82.90;;;;;;5033890;28;20071;-68
2020/12/12 08:27:27;;;;;;;20.65;10.25;;;-1.20;82.80;;;;;;5034217;28;20025;-67
2020/12/12 08:29:58;;;;;;;21.10;11.35;;;-1.20;83.00;;;;;;5035173;28;20028;-67
2020/12/12 08:32:38;;;;;;;23.88;13.20;;;-1.30;82.90;;;;;;5035203;28;20026;-67
2020/12/12 08:35:25;;;;;;;31.83;14.18;;;-1.30;82.80;;;;;;5035334;28;20029;-67
2020/12/12 08:38:13;;;;;;;26.13;12.40;;;-1.30;82.90;;;;;;5033475;28;20116;-68
2020/12/12 08:40:42;;;;;;;27.85;13.07;;;-1.30;83.10;;;;;;5033351;28;20073;-67
2020/12/12 08:43:09;;;;;;;28.98;13.35;;;-1.30;83.40;;;;;;5035121;28;20025;-68
2020/12/12 08:45:39;;;;;;;22.08;11.68;;;-1.30;83.50;;;;;;5034929;28;20075;-68
2020/12/12 08:48:13;;;;;;;41.40;17.33;;;-1.30;83.40;;;;;;5033692;28;20052;-69
2020/12/12 08:50:48;;;;;;;37.00;15.80;;;-1.30;83.60;;;;;;5035010;28;20086;-68
2020/12/12 08:53:30;;;;;;;82.00;32.15;;;-1.20;83.80;;;;;;5033611;28;20033;-67
2020/12/12 08:56:27;;;;;;;38.67;16.13;;;-1.20;83.60;;;;;;5033555;28;20060;-66
2020/12/12 08:59:06;;;;;;;27.92;12.05;;;-1.20;83.40;;;;;;5033179;28;20555;-67
2020/12/12 09:01:44;;;;;;;31.92;14.43;;;-1.20;83.20;;;;;;5033907;28;20505;-67
2020/12/12 09:04:12;;;;;;;34.10;14.82;;;-1.20;83.10;;;;;;5034882;28;20049;-67
2020/12/12 09:06:41;;;;;;;33.25;14.30;;;-1.30;83.00;;;;;;5034759;28;20022;-69
2020/12/12 09:09:14;;;;;;;26.88;12.38;;;-1.30;83.30;;;;;;5034520;28;20018;-67
2020/12/12 09:11:54;;;;;;;35.38;14.48;;;-1.20;83.60;;;;;;5033463;28;20025;-67
2020/12/12 09:14:21;;;;;;;22.92;9.73;;;-1.20;83.70;;;;;;5033283;28;20096;-67
2020/12/12 09:16:55;;;;;;;25.02;12.93;;;-1.20;83.40;;;;;;5043781;28;20373;-67
2020/12/12 09:19:21;;;;;;;23.65;10.82;;;-1.20;83.00;;;;;;5037596;28;20108;-67
2020/12/12 09:21:47;;;;;;;27.40;11.35;;;-1.20;83.10;;;;;;5033370;28;20026;-67
2020/12/12 09:24:13;;;;;;;47.17;17.40;;;-1.20;83.10;;;;;;5032983;28;20105;-68
2020/12/12 09:26:39;;;;;;;37.53;16.27;;;-1.20;83.50;;;;;;5033001;28;20033;-67
2020/12/12 09:29:05;;;;;;;46.53;18.75;;;-1.20;83.70;;;;;;5034084;28;20080;-67
2020/12/12 09:31:30;;;;;;;30.95;14.98;;;-1.10;83.80;;;;;;5034241;28;20356;-67
2020/12/12 09:33:56;;;;;;;28.40;13.13;;;-1.10;83.60;;;;;;5032911;28;20116;-67
2020/12/12 09:36:23;;;;;;;28.08;14.35;;;-1.10;83.40;;;;;;5033878;28;20036;-67
2020/12/12 09:38:49;;;;;;;25.13;11.50;;;-1.10;83.30;;;;;;5032387;28;20029;-67
2020/12/12 09:41:15;;;;;;;27.05;13.15;;;-1.10;83.60;;;;;;5033684;28;20044;-68
2020/12/12 09:43:41;;;;;;;27.02;11.73;;;-1.10;83.40;;;;;;5033739;28;20029;-67
2020/12/12 09:46:08;;;;;;;30.98;14.05;;;-1.10;83.30;;;;;;5033946;28;20060;-67
2020/12/12 09:48:36;;;;;;;28.67;13.38;;;-1.00;83.40;;;;;;5032460;28;20399;-67
2020/12/12 09:51:03;;;;;;;38.92;17.05;;;-1.10;83.20;;;;;;5031799;28;20083;-67
2020/12/12 09:53:29;;;;;;;25.73;11.65;;;-1.00;83.40;;;;;;5033481;28;20056;-67
2020/12/12 09:55:56;;;;;;;25.88;12.52;;;-1.00;83.10;;;;;;5032415;28;20061;-67
2020/12/12 09:58:22;;;;;;;30.25;14.48;;;-1.00;82.90;;;;;;5034144;28;20116;-67
2020/12/12 10:00:48;;;;;;;25.80;11.57;;;-1.10;82.90;;;;;;5032195;28;20030;-67
2020/12/12 10:03:14;;;;;;;52.72;18.35;;;-1.10;83.00;;;;;;5032272;28;20103;-67
2020/12/12 10:05:40;;;;;;;28.08;12.13;;;-1.10;83.10;;;;;;5032330;28;20383;-67
2020/12/12 10:08:06;;;;;;;28.20;13.68;;;-1.10;83.00;;;;;;5033596;28;20022;-67
2020/12/12 10:10:32;;;;;;;35.97;15.07;;;-1.10;83.10;;;;;;5032231;28;20053;-68
2020/12/12 10:13:04;;;;;;;27.48;12.82;;;-1.10;83.30;;;;;;5032082;28;20030;-66
2020/12/12 10:15:30;;;;;;;31.80;13.57;;;-1.10;83.30;;;;;;5033643;28;20033;-67
2020/12/12 10:17:55;;;;;;;54.90;25.05;;;-1.10;83.50;;;;;;5033147;28;20021;-68
2020/12/12 10:20:22;;;;;;;29.95;12.93;;;-1.00;83.70;;;;;;5033437;28;20387;-67
2020/12/12 10:22:49;;;;;;;29.23;12.50;;;-1.00;83.60;;;;;;5031778;28;20037;-68
2020/12/12 10:25:15;;;;;;;32.15;15.60;;;-1.00;83.50;;;;;;5031690;28;20036;-68
2020/12/12 10:27:41;;;;;;;29.67;13.45;;;-1.00;83.40;;;;;;5047823;28;20100;-68
2020/12/12 10:30:12;;;;;;;31.70;12.80;;;-1.00;83.50;;;;;;5046909;28;20475;-68
2020/12/12 10:32:38;;;;;;;25.02;11.13;;;-1.00;83.30;;;;;;5031937;28;20040;-68
2020/12/12 10:35:06;;;;;;;21.45;10.32;;;-1.00;83.20;;;;;;5032923;28;20025;-67
2020/12/12 10:37:32;;;;;;;28.58;12.60;;;-1.00;83.40;;;;;;5031702;28;20026;-69
2020/12/12 10:42:31;;;;;;;27.63;11.63;;;-1.00;83.20;;;;;;5033438;28;20407;-68
2020/12/12 10:45:00;;;;;;;22.05;10.30;;;-1.00;83.10;;;;;;5031498;28;20025;-68
2020/12/12 10:47:26;;;;;;;24.67;12.13;;;-1.00;83.10;;;;;;5033163;28;20030;-67
2020/12/12 10:49:52;;;;;;;32.63;14.00;;;-1.10;82.90;;;;;;5032896;28;20025;-67
2020/12/12 10:52:22;;;;;;;38.03;15.13;;;-1.10;83.10;;;;;;5032864;28;20434;-67
2020/12/12 10:54:49;;;;;;;43.35;15.63;;;-1.10;83.10;;;;;;5031640;28;20029;-67
2020/12/12 10:57:15;;;;;;;49.83;17.55;;;-1.10;83.00;;;;;;5031801;28;20022;-68
2020/12/12 10:59:44;;;;;;;69.28;26.42;;;-1.10;83.00;;;;;;5032853;28;20482;-68
2020/12/12 11:02:11;;;;;;;65.40;24.58;;;-1.20;83.10;;;;;;5033541;28;20029;-68
2020/12/12 11:04:41;;;;;;;73.65;29.52;;;-1.20;83.20;;;;;;5035527;28;20029;-68
2020/12/12 11:07:08;;;;;;;36.40;15.90;;;-1.20;83.30;;;;;;5050749;28;20413;-67
2020/12/12 11:09:34;;;;;;;37.80;18.60;;;-1.20;83.60;;;;;;5036885;28;20148;-67
2020/12/12 11:12:00;;;;;;;39.40;16.90;;;-1.10;84.00;;;;;;5037006;28;20018;-67
2020/12/12 11:14:28;;;;;;;89.95;34.03;;;-1.10;84.60;;;;;;5036496;28;20051;-67
2020/12/12 11:16:55;;;;;;;60.17;24.60;;;-1.00;83.90;;;;;;5035234;28;20042;-67
2020/12/12 11:19:22;;;;;;;43.15;17.63;;;-1.00;83.70;;;;;;5035224;28;20082;-68
2020/12/12 11:21:48;;;;;;;35.97;16.20;;;-1.10;83.30;;;;;;5036977;28;20041;-69
2020/12/12 11:24:14;;;;;;;46.90;20.65;;;-1.10;83.40;;;;;;5036587;28;20045;-69
2020/12/12 11:26:39;;;;;;;34.40;13.13;;;-1.10;83.60;;;;;;5035373;28;20025;-68
2020/12/12 11:29:05;;;;;;;31.98;13.93;;;-1.10;83.60;;;;;;5036985;28;20034;-68
2020/12/12 11:31:31;;;;;;;40.13;15.55;;;-1.10;83.60;;;;;;5036781;28;20021;-68
2020/12/12 11:35:01;;;;;;;35.30;14.15;;;-1.10;83.90;;;;;;5036372;28;20522;-67
2020/12/12 11:39:37;;;;;;;27.67;13.40;;;-1.10;83.80;;;;;;5036511;28;20531;-68
2020/12/12 11:45:07;;;;;;;;;;;-1.10;84.20;;;;;;5052126;28;20098;-68
2020/12/12 11:47:33;;;;;;;36.40;15.77;;;-1.10;84.20;;;;;;5044842;28;19909;-67
2020/12/12 11:49:59;;;;;;;58.45;26.85;;;-1.10;84.30;;;;;;5037949;28;20117;-67
2020/12/12 11:52:25;;;;;;;30.67;12.57;;;-1.10;84.50;;;;;;5047774;28;20026;-67
2020/12/12 11:54:50;;;;;;;39.95;16.67;;;-1.10;84.50;;;;;;5034124;28;20029;-69
2020/12/12 11:57:16;;;;;;;65.88;23.98;;;-1.10;84.50;;;;;;5034669;28;20371;-67
2020/12/12 11:59:45;;;;;;;59.55;23.83;;;-1.10;84.50;;;;;;5034934;28;20104;-67
2020/12/12 12:02:11;;;;;;;48.33;20.20;;;-1.10;84.60;;;;;;5035628;28;20068;-68
2020/12/12 12:04:38;;;;;;;33.55;13.38;;;-1.10;84.70;;;;;;5046508;28;20060;-68
2020/12/12 12:07:05;;;;;;;31.75;13.48;;;-1.10;84.80;;;;;;5038931;28;20147;-67
2020/12/12 12:09:41;;;;;;;32.63;14.30;;;-1.10;84.70;;;;;;5034369;28;20036;-68
2020/12/12 12:12:06;;;;;;;48.03;22.13;;;-1.20;84.80;;;;;;5046971;28;20061;-68
2020/12/12 12:14:32;;;;;;;31.90;13.25;;;-1.20;84.80;;;;;;5039138;28;20482;-67
2020/12/12 12:16:58;;;;;;;49.28;19.15;;;-1.20;84.80;;;;;;5045149;28;20028;-68
2020/12/12 12:19:24;;;;;;;59.25;22.95;;;-1.20;85.00;;;;;;5034210;28;20091;-68
2020/12/12 12:21:51;;;;;;;35.90;15.13;;;-1.20;85.10;;;;;;5035357;28;20483;-68
2020/12/12 12:24:18;;;;;;;37.42;15.40;;;-1.20;85.20;;;;;;5034194;28;20415;-68
2020/12/12 12:26:45;;;;;;;35.60;15.82;;;-1.20;85.30;;;;;;5042244;28;20025;-68
2020/12/12 12:29:12;;;;;;;36.45;15.68;;;-1.20;85.40;;;;;;5042744;28;20057;-68
2020/12/12 12:31:40;;;;;;;79.70;26.48;;;-1.20;85.50;;;;;;5033972;28;20380;-68
2020/12/12 12:34:06;;;;;;;107.55;34.45;;;-1.10;85.80;;;;;;5034027;28;20455;-68
2020/12/12 12:36:32;;;;;;;73.82;25.58;;;-1.10;85.80;;;;;;5035198;28;20041;-68
2020/12/12 12:38:59;;;;;;;64.80;26.70;;;-1.10;85.90;;;;;;5033824;28;20033;-68
2020/12/12 12:41:26;;;;;;;72.65;27.85;;;-1.10;85.90;;;;;;5033974;28;20025;-68
2020/12/12 12:43:52;;;;;;;87.45;36.28;;;-1.10;85.90;;;;;;5034037;28;20471;-68